Aeroporto :
LOGIN :

Iscrizione | Disclaimer

   EN    FR    IT 

 










Sommario :    VFR   VFR Marginale   IFR   IFR Intensivo   IFR Molto Intensivo
Visibilità : 
Base nubi : 
>= 8 km
>= 3000ft
5 / 8 km
1000 / 3000 ft
1500m / 5 km
500 / 1000 ft
800 / 1500m
200 / 500 ft
< 800m
< 200 ft
Simboli :   Temporali  Nebbia  Neve Forte  Precipitazioni Forti  Vento > 20 kt
SIGMETs :   Varie  Temporali  Ghiacco  Turbolenza  Onda orograficha  Ceneri Vulcaniche






- Altitudine del aeroporto : 16 ft
- Codice IATA : LPX


EVLA - Liepaja

ULTIMO METAR :
  • 270250Z AUTO 25005KT 8000 BKN006/// OVC039/// 05/05 Q1012

METARs OBSOLETI :
  • 270220Z AUTO 25005KT 8000 OVC007/// 05/05 Q1012
  • 270150Z AUTO 24005KT 8000 BKN006/// OVC034/// 05/05 Q1012
  • 270120Z AUTO 25005KT 9000 BKN006/// OVC028/// 05/05 Q1012
  • 270050Z AUTO 24006KT 9000 OVC006/// 05/05 Q1012
  • 270020Z AUTO 25006KT 9000 BKN006/// BKN021/// OVC025/// 05/05 Q1012

TAF TAF EVLA
Valido dal 27 a 03 ore il 28 a 03 ore UTC


270205Z 2703/2803 25010KT 8000 OVC005
TEMPO 2703/2709 3000 DZ BR BKN002 OVC005
BECMG 2711/2712 OVC010
BECMG 2713/2714 18013KT OVC015
BECMG 2718/2719 OVC010
BECMG 2723/2724 OVC005
TEMPO 2800/2803 2000 -RA BR BKN001 OVC005



MetMap, La meteo Aeronautica in un colpo d'occhio ! - Copyright ORBIFLY Dicembre 2007 - Disclaimer

ORBIFLY MET'MAP TEAM :

Programmazione e sviluppo : Alexandra Zaïnal
Concezione : Baudouin d'Aumeries
Aiuto per la programmazione : Marc-Olivier Méhu
Supporto tecnico e logistico : Manuel Goepfert
Aiuto per la traduzione : Arnaldo La Scala

Contatto : metmap@orbifly.com




FONTI E CREDITI :

   NOAA